Time;durP1;ratioP1;P1;durP2;ratioP2;P2;SDS_P1;SDS_P2;PMS_P1;PMS_P2;Temp;Humidity;BMP_temperature;BMP_pressure;BME280_temperature;BME280_humidity;BME280_pressure;Samples;Min_cycle;Max_cycle;Signal;HPM_P1;HPM_P2
2022/08/21 00:01:06;;;;;;;;;2.33;2.33;;;;;;;;5089272;27;45378;-62
2022/08/21 00:03:32;;;;;;;;;5.00;3.00;;;;;;;;5086183;27;45367;-61
2022/08/21 00:05:57;;;;;;;;;4.75;3.75;;;;;;;;5083929;27;47334;-61
2022/08/21 00:08:22;;;;;;;;;5.25;3.25;;;;;;;;5113744;27;45381;-61
2022/08/21 00:10:47;;;;;;;;;2.75;2.75;;;;;;;;5082768;27;45498;-61
2022/08/21 00:13:13;;;;;;;;;4.33;2.67;;;;;;;;5081201;27;45593;-62
2022/08/21 00:15:39;;;;;;;;;3.00;3.00;;;;;;;;5108016;27;46754;-63
2022/08/21 00:18:06;;;;;;;;;3.00;2.00;;;;;;;;5101010;27;45391;-61
2022/08/21 00:20:32;;;;;;;;;4.00;2.00;;;;;;;;5094332;27;45905;-61
2022/08/21 00:22:57;;;;;;;;;4.00;2.25;;;;;;;;5102519;27;45318;-61
2022/08/21 00:25:23;;;;;;;;;2.00;2.00;;;;;;;;5107658;27;45662;-61
2022/08/21 00:27:48;;;;;;;;;4.33;3.00;;;;;;;;5078194;27;45586;-61
2022/08/21 00:30:15;;;;;;;;;2.00;2.00;;;;;;;;5094721;27;45354;-61
2022/08/21 00:32:40;;;;;;;;;3.00;3.00;;;;;;;;5100028;27;45410;-61
2022/08/21 00:35:08;;;;;;;;;1.33;1.33;;;;;;;;5091440;27;48412;-61
2022/08/21 00:37:33;;;;;;;;;3.33;3.33;;;;;;;;5088647;27;45426;-62
2022/08/21 00:39:58;;;;;;;;;3.00;3.00;;;;;;;;5102332;27;45364;-61
2022/08/21 00:42:24;;;;;;;;;2.00;2.00;;;;;;;;5094877;27;45497;-62
2022/08/21 00:44:50;;;;;;;;;1.33;1.33;;;;;;;;5082377;27;47139;-61
2022/08/21 00:47:16;;;;;;;;;3.00;3.00;;;;;;;;5108623;27;45371;-61
2022/08/21 00:49:41;;;;;;;;;2.33;1.00;;;;;;;;5108289;27;45375;-62
2022/08/21 00:52:08;;;;;;;;;2.00;2.00;;;;;;;;5101127;27;45884;-62
2022/08/21 00:54:34;;;;;;;;;2.33;1.33;;;;;;;;5094634;27;47708;-62
2022/08/21 00:57:01;;;;;;;;;4.00;3.00;;;;;;;;5076866;27;46378;-62
2022/08/21 00:59:27;;;;;;;;;2.00;2.00;;;;;;;;5096405;27;45442;-64
2022/08/21 01:01:53;;;;;;;;;2.50;2.00;;;;;;;;5091022;27;45314;-63
2022/08/21 01:04:18;;;;;;;;;4.00;2.00;;;;;;;;5080803;27;47175;-62
2022/08/21 01:06:44;;;;;;;;;3.50;3.00;;;;;;;;5112634;27;45360;-62
2022/08/21 01:09:10;;;;;;;;;4.00;3.00;;;;;;;;5103548;27;45305;-61
2022/08/21 01:11:36;;;;;;;;;5.00;3.67;;;;;;;;5086818;27;45423;-61
2022/08/21 01:14:01;;;;;;;;;2.00;2.00;;;;;;;;5110467;27;46533;-63
2022/08/21 01:16:27;;;;;;;;;4.00;3.50;;;;;;;;5080990;27;46311;-62
2022/08/21 01:18:53;;;;;;;;;2.33;2.33;;;;;;;;5092722;27;45476;-61
2022/08/21 01:21:23;;;;;;;;;2.00;2.00;;;;;;;;5085491;27;45571;-61
2022/08/21 01:23:50;;;;;;;;;5.00;3.00;;;;;;;;5084680;27;47590;-62
2022/08/21 01:26:16;;;;;;;;;3.00;3.00;;;;;;;;5112881;27;45567;-61
2022/08/21 01:28:45;;;;;;;;;3.25;2.75;;;;;;;;5099106;27;45448;-62
2022/08/21 01:31:11;;;;;;;;;3.00;2.75;;;;;;;;5090248;27;45579;-61
2022/08/21 01:33:37;;;;;;;;;2.50;2.00;;;;;;;;5106543;27;46490;-61
2022/08/21 01:36:02;;;;;;;;;3.67;2.00;;;;;;;;5082655;27;45743;-61
2022/08/21 01:38:27;;;;;;;;;3.00;3.00;;;;;;;;5094048;27;45279;-62
2022/08/21 01:40:53;;;;;;;;;3.50;3.50;;;;;;;;5100430;27;45406;-61
2022/08/21 01:43:19;;;;;;;;;2.25;2.25;;;;;;;;5107081;27;46523;-62
2022/08/21 01:45:44;;;;;;;;;3.25;3.25;;;;;;;;5107687;27;45372;-60
2022/08/21 01:48:10;;;;;;;;;3.25;3.25;;;;;;;;5081583;27;45330;-60
2022/08/21 01:50:35;;;;;;;;;4.50;3.50;;;;;;;;5112268;27;45475;-61
2022/08/21 01:53:00;;;;;;;;;3.00;3.00;;;;;;;;5082900;27;46592;-60
2022/08/21 01:55:26;;;;;;;;;2.75;2.75;;;;;;;;5106012;27;45349;-61
2022/08/21 01:57:51;;;;;;;;;2.33;2.33;;;;;;;;5109064;27;45348;-61
2022/08/21 02:00:18;;;;;;;;;2.75;2.00;;;;;;;;5080392;27;45459;-62
2022/08/21 02:02:43;;;;;;;;;2.67;2.67;;;;;;;;5093415;27;48728;-62
2022/08/21 02:05:09;;;;;;;;;2.75;2.75;;;;;;;;5084103;27;45660;-61
2022/08/21 02:07:39;;;;;;;;;3.00;3.00;;;;;;;;5086307;27;45425;-61
2022/08/21 02:10:05;;;;;;;;;3.75;2.75;;;;;;;;5091847;27;45822;-61
2022/08/21 02:12:31;;;;;;;;;2.75;2.75;;;;;;;;5098321;27;46231;-61
2022/08/21 02:14:56;;;;;;;;;3.75;2.00;;;;;;;;5110003;27;45479;-61
2022/08/21 02:17:22;;;;;;;;;4.75;4.00;;;;;;;;5085999;27;45274;-63
2022/08/21 02:19:47;;;;;;;;;3.50;3.50;;;;;;;;5084334;27;45456;-62
2022/08/21 02:22:13;;;;;;;;;3.67;3.00;;;;;;;;5092756;27;47669;-62
2022/08/21 02:24:38;;;;;;;;;5.00;4.00;;;;;;;;5083285;27;45993;-62
2022/08/21 02:27:04;;;;;;;;;3.25;2.25;;;;;;;;5093938;27;45401;-61
2022/08/21 02:29:29;;;;;;;;;5.25;3.25;;;;;;;;5108771;27;45424;-61
2022/08/21 02:31:54;;;;;;;;;3.50;3.50;;;;;;;;5098664;27;45739;-61
2022/08/21 02:34:19;;;;;;;;;1.75;1.75;;;;;;;;5098793;27;45443;-61
2022/08/21 02:36:44;;;;;;;;;2.75;2.75;;;;;;;;5099055;27;45464;-62
2022/08/21 02:39:09;;;;;;;;;4.00;4.00;;;;;;;;5080424;27;45373;-61
2022/08/21 02:41:35;;;;;;;;;4.00;3.00;;;;;;;;5098351;27;46770;-61
2022/08/21 02:44:00;;;;;;;;;2.75;2.75;;;;;;;;5098923;27;45347;-61
2022/08/21 02:46:25;;;;;;;;;2.25;2.25;;;;;;;;5098839;27;45218;-62
2022/08/21 02:48:50;;;;;;;;;3.50;2.50;;;;;;;;5098531;27;45410;-63
2022/08/21 02:51:17;;;;;;;;;8.00;4.25;;;;;;;;5098185;27;46143;-62
2022/08/21 02:53:43;;;;;;;;;2.75;2.75;;;;;;;;5098456;27;45365;-62
2022/08/21 02:56:11;;;;;;;;;3.50;3.00;;;;;;;;5098516;27;45343;-62
2022/08/21 02:58:38;;;;;;;;;2.75;2.75;;;;;;;;5080020;27;45386;-62
2022/08/21 03:01:04;;;;;;;;;4.50;4.50;;;;;;;;5098218;27;46391;-62
2022/08/21 03:03:30;;;;;;;;;3.00;2.00;;;;;;;;5098445;27;45347;-62
2022/08/21 03:05:55;;;;;;;;;3.00;3.00;;;;;;;;5098545;27;45365;-62
2022/08/21 03:08:21;;;;;;;;;3.50;3.50;;;;;;;;5080110;27;45380;-62
2022/08/21 03:10:48;;;;;;;;;4.75;3.00;;;;;;;;5079546;27;48600;-61
2022/08/21 03:13:14;;;;;;;;;4.75;4.75;;;;;;;;5098218;27;45394;-61
2022/08/21 03:15:39;;;;;;;;;4.00;3.00;;;;;;;;5098093;27;45410;-61
2022/08/21 03:18:06;;;;;;;;;4.75;4.00;;;;;;;;5098252;27;45404;-61
2022/08/21 03:20:33;;;;;;;;;2.50;2.25;;;;;;;;5079760;27;48527;-61
2022/08/21 03:22:59;;;;;;;;;6.50;3.75;;;;;;;;5079479;27;45517;-62
2022/08/21 03:25:25;;;;;;;;;3.00;3.00;;;;;;;;5098310;27;45344;-61
2022/08/21 03:27:50;;;;;;;;;3.00;3.00;;;;;;;;5097819;27;45437;-61
2022/08/21 03:30:17;;;;;;;;;4.00;3.00;;;;;;;;5079222;27;48587;-61
2022/08/21 03:32:42;;;;;;;;;2.50;1.75;;;;;;;;5079324;27;45459;-61
2022/08/21 03:35:08;;;;;;;;;3.75;3.75;;;;;;;;5096540;27;45281;-61
2022/08/21 03:37:33;;;;;;;;;3.50;3.50;;;;;;;;5098140;27;45382;-61
2022/08/21 03:39:58;;;;;;;;;4.50;3.00;;;;;;;;5097721;27;46202;-61
2022/08/21 03:42:23;;;;;;;;;2.50;2.50;;;;;;;;5097902;27;45348;-62
2022/08/21 03:44:49;;;;;;;;;3.75;2.75;;;;;;;;5097916;27;45894;-62
2022/08/21 03:47:14;;;;;;;;;4.25;4.25;;;;;;;;5097769;27;45352;-61
2022/08/21 03:49:39;;;;;;;;;4.00;4.00;;;;;;;;5079003;27;47658;-61
2022/08/21 03:52:05;;;;;;;;;3.00;3.00;;;;;;;;5097439;27;45355;-61
2022/08/21 03:54:30;;;;;;;;;3.50;3.50;;;;;;;;5097851;27;45323;-62
2022/08/21 03:56:56;;;;;;;;;5.00;3.75;;;;;;;;5079087;27;45437;-62
2022/08/21 03:59:21;;;;;;;;;6.25;3.00;;;;;;;;5079129;27;48647;-61
2022/08/21 04:01:53;;;;;;;;;3.00;3.00;;;;;;;;5078998;27;45392;-62
2022/08/21 04:04:19;;;;;;;;;2.75;2.75;;;;;;;;5079345;27;45290;-61
2022/08/21 04:06:44;;;;;;;;;3.25;3.25;;;;;;;;5097312;27;45393;-62
2022/08/21 04:09:09;;;;;;;;;4.00;3.25;;;;;;;;5078704;27;47991;-61
2022/08/21 04:11:34;;;;;;;;;4.00;4.00;;;;;;;;5078957;27;46562;-61
2022/08/21 04:14:00;;;;;;;;;2.50;2.50;;;;;;;;5097425;27;45404;-61
2022/08/21 04:16:25;;;;;;;;;2.75;2.75;;;;;;;;5097399;27;45489;-61
2022/08/21 04:18:50;;;;;;;;;4.00;3.00;;;;;;;;5096985;27;45821;-61
2022/08/21 04:21:16;;;;;;;;;7.75;4.50;;;;;;;;5078733;27;45474;-64
2022/08/21 04:23:41;;;;;;;;;4.00;4.00;;;;;;;;5078776;27;45605;-61
2022/08/21 04:26:06;;;;;;;;;5.25;5.25;;;;;;;;5078780;27;45831;-61
2022/08/21 04:28:31;;;;;;;;;7.00;4.25;;;;;;;;5096951;27;46518;-62
2022/08/21 04:30:57;;;;;;;;;2.75;2.00;;;;;;;;5096844;27;45440;-62
2022/08/21 04:33:22;;;;;;;;;5.75;4.00;;;;;;;;5097064;27;45336;-63
2022/08/21 04:35:48;;;;;;;;;5.50;4.00;;;;;;;;5078580;27;45623;-62
2022/08/21 04:38:13;;;;;;;;;4.00;3.00;;;;;;;;5096820;27;45865;-61
2022/08/21 04:40:39;;;;;;;;;3.00;3.00;;;;;;;;5078237;27;45389;-61
2022/08/21 04:43:05;;;;;;;;;4.25;4.25;;;;;;;;5078336;27;45541;-61
2022/08/21 04:45:32;;;;;;;;;4.50;3.50;;;;;;;;5078282;27;45564;-62
2022/08/21 04:47:58;;;;;;;;;4.00;4.00;;;;;;;;5096490;27;45821;-62
2022/08/21 04:50:49;;;;;;;;;4.00;3.75;;;;;;;;5096358;27;45392;-63
2022/08/21 04:53:20;;;;;;;;;4.00;4.00;;;;;;;;5016472;28;45397;-62
2022/08/21 04:55:46;;;;;;;;;4.50;4.50;;;;;;;;5016497;28;45626;-61
2022/08/21 04:58:13;;;;;;;;;7.25;5.00;;;;;;;;5033267;28;45763;-61
2022/08/21 05:00:39;;;;;;;;;4.00;4.00;;;;;;;;5016291;28;46467;-62
2022/08/21 05:03:07;;;;;;;;;5.00;5.00;;;;;;;;5039108;28;45445;-61
2022/08/21 05:05:32;;;;;;;;;3.50;3.00;;;;;;;;5051645;28;45553;-62
2022/08/21 05:07:59;;;;;;;;;7.75;6.00;;;;;;;;5053133;28;48819;-61
2022/08/21 05:10:25;;;;;;;;;4.25;3.75;;;;;;;;5053082;28;45447;-63
2022/08/21 05:12:50;;;;;;;;;4.75;4.75;;;;;;;;5053593;28;45441;-63
2022/08/21 05:15:16;;;;;;;;;5.75;4.25;;;;;;;;5053576;28;45438;-62
2022/08/21 05:17:42;;;;;;;;;8.00;6.50;;;;;;;;5035913;28;47597;-63
2022/08/21 05:20:11;;;;;;;;;3.00;3.00;;;;;;;;5052989;28;45758;-62
2022/08/21 05:22:37;;;;;;;;;11.00;7.75;;;;;;;;5053109;28;45298;-63
2022/08/21 05:25:03;;;;;;;;;5.00;5.00;;;;;;;;5052832;28;45405;-64
2022/08/21 05:27:29;;;;;;;;;9.75;7.75;;;;;;;;5052282;28;48976;-64
2022/08/21 05:29:54;;;;;;;;;8.50;6.75;;;;;;;;5080787;27;45454;-64
2022/08/21 05:32:20;;;;;;;;;8.25;6.50;;;;;;;;5116774;27;45424;-63
2022/08/21 05:34:46;;;;;;;;;5.50;5.50;;;;;;;;5098093;27;46086;-64
2022/08/21 05:37:12;;;;;;;;;5.75;5.75;;;;;;;;5097333;27;48521;-63
2022/08/21 05:39:37;;;;;;;;;9.00;7.50;;;;;;;;5097551;27;45372;-62
2022/08/21 05:42:02;;;;;;;;;4.25;4.25;;;;;;;;5116564;27;45406;-62
2022/08/21 05:44:27;;;;;;;;;7.00;6.50;;;;;;;;5097881;27;45328;-63
2022/08/21 05:46:53;;;;;;;;;8.50;7.50;;;;;;;;5096871;27;47371;-63
2022/08/21 05:49:18;;;;;;;;;8.25;7.50;;;;;;;;5114806;27;46064;-63
2022/08/21 05:51:43;;;;;;;;;9.25;7.25;;;;;;;;5086339;27;45365;-62
2022/08/21 05:54:08;;;;;;;;;9.25;8.25;;;;;;;;5077530;27;45387;-63
2022/08/21 05:56:34;;;;;;;;;5.00;3.25;;;;;;;;5076786;27;48464;-64
2022/08/21 05:58:59;;;;;;;;;5.50;5.50;;;;;;;;5094624;27;45306;-65
2022/08/21 06:01:24;;;;;;;;;6.50;4.50;;;;;;;;5095624;27;45471;-67
2022/08/21 06:03:50;;;;;;;;;8.25;8.25;;;;;;;;5077222;27;45408;-63
2022/08/21 06:06:15;;;;;;;;;7.50;7.50;;;;;;;;5077081;27;48668;-62
2022/08/21 06:08:41;;;;;;;;;8.00;7.75;;;;;;;;5074450;27;45898;-64
2022/08/21 06:11:06;;;;;;;;;6.50;6.50;;;;;;;;5076240;27;45630;-63
2022/08/21 06:13:32;;;;;;;;;10.75;8.50;;;;;;;;5076319;27;45248;-64
2022/08/21 06:16:01;;;;;;;;;7.50;7.25;;;;;;;;5087950;27;46842;-64
2022/08/21 06:18:26;;;;;;;;;9.25;7.00;;;;;;;;5091507;27;45408;-64
2022/08/21 06:20:51;;;;;;;;;5.25;5.25;;;;;;;;5085704;27;45551;-64
2022/08/21 06:23:17;;;;;;;;;7.00;7.00;;;;;;;;5092352;27;45364;-65
2022/08/21 06:25:42;;;;;;;;;3.50;3.50;;;;;;;;5093673;27;45593;-63
2022/08/21 06:28:08;;;;;;;;;7.50;4.25;;;;;;;;5058139;28;45394;-64
2022/08/21 06:30:34;;;;;;;;;8.00;7.75;;;;;;;;5035713;28;45382;-65
2022/08/21 06:32:59;;;;;;;;;8.75;5.75;;;;;;;;5044102;28;45399;-64
2022/08/21 06:35:25;;;;;;;;;10.00;8.75;;;;;;;;5057357;28;47632;-63
2022/08/21 06:37:50;;;;;;;;;7.75;5.50;;;;;;;;5073306;28;45412;-63
2022/08/21 06:40:16;;;;;;;;;7.00;7.00;;;;;;;;5056521;28;45426;-62
2022/08/21 06:42:41;;;;;;;;;7.25;5.50;;;;;;;;5056608;28;45288;-62
2022/08/21 06:45:06;;;;;;;;;10.00;6.00;;;;;;;;5074437;28;47222;-63
2022/08/21 06:47:32;;;;;;;;;8.50;8.25;;;;;;;;5056262;28;46393;-63
2022/08/21 06:49:57;;;;;;;;;5.00;5.00;;;;;;;;5064314;28;45395;-66
2022/08/21 06:52:22;;;;;;;;;7.00;7.00;;;;;;;;5032610;28;45437;-64
2022/08/21 06:54:47;;;;;;;;;4.50;4.50;;;;;;;;5053335;28;46031;-64
2022/08/21 06:57:13;;;;;;;;;9.00;7.50;;;;;;;;5035658;28;46254;-64
2022/08/21 06:59:38;;;;;;;;;6.00;6.00;;;;;;;;5053977;28;45469;-64
2022/08/21 07:02:03;;;;;;;;;6.00;5.00;;;;;;;;5045219;28;45667;-63
2022/08/21 07:04:28;;;;;;;;;10.50;8.50;;;;;;;;5058457;28;47603;-68
2022/08/21 07:06:54;;;;;;;;;7.50;7.50;;;;;;;;5073855;28;45484;-63
2022/08/21 07:09:19;;;;;;;;;8.25;7.25;;;;;;;;5046376;28;45350;-65
2022/08/21 07:11:46;;;;;;;;;9.50;7.75;;;;;;;;5047042;28;45401;-67
2022/08/21 07:14:12;;;;;;;;;5.75;5.75;;;;;;;;5055835;28;45307;-65
2022/08/21 07:16:37;;;;;;;;;7.75;7.50;;;;;;;;5039246;28;45816;-65
2022/08/21 07:19:02;;;;;;;;;7.25;7.25;;;;;;;;5057430;28;45421;-64
2022/08/21 07:21:28;;;;;;;;;8.50;7.75;;;;;;;;5057273;28;45373;-63
2022/08/21 07:23:53;;;;;;;;;5.75;5.75;;;;;;;;5039350;28;47315;-63
2022/08/21 07:26:20;;;;;;;;;10.00;8.00;;;;;;;;5057333;28;45496;-63
2022/08/21 07:28:46;;;;;;;;;7.50;6.00;;;;;;;;5057355;28;45362;-62
2022/08/21 07:31:13;;;;;;;;;6.75;6.75;;;;;;;;5059202;27;45596;-63
2022/08/21 07:33:39;;;;;;;;;5.50;5.50;;;;;;;;5059200;28;46591;-63
2022/08/21 07:36:05;;;;;;;;;8.00;6.25;;;;;;;;5077471;28;45282;-63
2022/08/21 07:38:30;;;;;;;;;5.50;5.50;;;;;;;;5077419;28;45305;-60
2022/08/21 07:40:58;;;;;;;;;5.75;5.75;;;;;;;;5040698;28;45323;-61
2022/08/21 07:43:24;;;;;;;;;8.00;8.00;;;;;;;;5054650;28;48568;-62
2022/08/21 07:45:49;;;;;;;;;9.25;9.00;;;;;;;;5055260;28;45387;-62
2022/08/21 07:48:15;;;;;;;;;6.75;5.75;;;;;;;;5055764;28;45444;-62
2022/08/21 07:50:41;;;;;;;;;6.00;6.00;;;;;;;;5057964;27;45521;-63
2022/08/21 07:53:07;;;;;;;;;9.00;7.50;;;;;;;;5097391;27;47116;-63
2022/08/21 07:55:32;;;;;;;;;11.00;8.50;;;;;;;;5097477;27;45471;-63
2022/08/21 07:57:58;;;;;;;;;7.25;7.25;;;;;;;;5079467;27;45374;-63
2022/08/21 08:00:25;;;;;;;;;9.25;8.00;;;;;;;;5079184;27;45463;-64
2022/08/21 08:02:51;;;;;;;;;6.00;6.00;;;;;;;;5097239;27;45725;-63
2022/08/21 08:05:17;;;;;;;;;3.50;3.25;;;;;;;;5078806;27;45450;-63
2022/08/21 08:07:42;;;;;;;;;5.75;5.75;;;;;;;;5078522;27;45419;-63
2022/08/21 08:10:08;;;;;;;;;7.00;7.00;;;;;;;;5079043;27;45471;-62
2022/08/21 08:12:38;;;;;;;;;9.25;7.00;;;;;;;;5060674;28;47720;-64
2022/08/21 08:15:04;;;;;;;;;8.00;6.50;;;;;;;;5050065;28;46370;-62
2022/08/21 08:17:29;;;;;;;;;6.75;6.50;;;;;;;;5058366;28;45484;-60
2022/08/21 08:19:55;;;;;;;;;6.00;5.00;;;;;;;;5058448;28;45340;-63
2022/08/21 08:22:23;;;;;;;;;7.75;7.50;;;;;;;;5070834;27;46068;-65
2022/08/21 08:24:48;;;;;;;;;6.33;4.67;;;;;;;;5057767;28;46370;-63
2022/08/21 08:27:14;;;;;;;;;5.75;5.75;;;;;;;;5057826;28;45390;-62
2022/08/21 08:29:39;;;;;;;;;5.75;5.75;;;;;;;;5075490;28;45286;-64
2022/08/21 08:32:07;;;;;;;;;6.50;4.50;;;;;;;;5056214;27;48450;-64
2022/08/21 08:34:32;;;;;;;;;7.25;7.00;;;;;;;;5071491;27;45381;-62
2022/08/21 08:36:58;;;;;;;;;6.00;6.00;;;;;;;;5060773;27;45318;-61
2022/08/21 08:39:24;;;;;;;;;6.50;5.25;;;;;;;;5070062;28;45497;-62
2022/08/21 08:41:51;;;;;;;;;6.00;5.50;;;;;;;;5046580;28;48606;-62
2022/08/21 08:44:16;;;;;;;;;6.00;6.00;;;;;;;;5036702;28;46426;-62
2022/08/21 08:46:44;;;;;;;;;5.75;4.00;;;;;;;;5055993;28;45453;-62
2022/08/21 08:49:09;;;;;;;;;10.00;7.50;;;;;;;;5056137;28;45465;-62
2022/08/21 08:51:44;;;;;;;;;7.25;6.50;;;;;;;;5073885;27;45713;-62
2022/08/21 08:54:13;;;;;;;;;4.50;4.50;;;;;;;;5096414;27;45391;-63
2022/08/21 08:56:39;;;;;;;;;4.67;4.67;;;;;;;;5096832;27;45339;-62
2022/08/21 08:59:34;;;;;;;;;8.25;5.00;;;;;;;;5078143;27;45461;-62
2022/08/21 09:01:59;;;;;;;;;5.25;5.25;;;;;;;;5060231;27;47714;-61
2022/08/21 09:04:27;;;;;;;;;4.25;4.25;;;;;;;;5091799;27;45412;-61
2022/08/21 09:07:01;;;;;;;;;5.00;5.00;;;;;;;;5083321;27;45393;-62
2022/08/21 09:09:29;;;;;;;;;6.25;5.00;;;;;;;;5077917;27;45650;-61
2022/08/21 09:12:09;;;;;;;;;3.67;3.67;;;;;;;;5077709;27;45456;-63
2022/08/21 09:14:53;;;;;;;;;4.75;4.00;;;;;;;;5093032;27;46054;-63
2022/08/21 09:17:18;;;;;;;;;3.33;3.33;;;;;;;;5096452;27;45420;-63
2022/08/21 09:20:02;;;;;;;;;4.33;4.00;;;;;;;;5094858;27;45397;-62
2022/08/21 09:22:39;;;;;;;;;5.00;4.00;;;;;;;;5095935;27;46250;-63
2022/08/21 09:25:10;;;;;;;;;5.33;4.67;;;;;;;;5077596;27;45321;-61
2022/08/21 09:27:36;;;;;;;;;4.33;4.33;;;;;;;;5093638;27;45403;-62
2022/08/21 09:30:03;;;;;;;;;4.00;4.00;;;;;;;;5050770;28;45417;-66
2022/08/21 09:32:30;;;;;;;;;5.67;4.00;;;;;;;;5034961;28;49225;-66
2022/08/21 09:35:00;;;;;;;;;5.00;5.00;;;;;;;;5053732;28;46194;-65
2022/08/21 09:37:26;;;;;;;;;9.50;5.50;;;;;;;;5038235;27;45856;-66
2022/08/21 09:39:51;;;;;;;;;9.25;9.25;;;;;;;;5057740;28;45345;-66
2022/08/21 09:42:27;;;;;;;;;6.25;5.00;;;;;;;;5072356;28;48719;-67
2022/08/21 09:45:07;;;;;;;;;4.25;4.25;;;;;;;;5065486;28;45387;-68
2022/08/21 09:47:33;;;;;;;;;3.25;2.75;;;;;;;;5048705;28;45365;-64
2022/08/21 09:50:07;;;;;;;;;4.00;1.00;;;;;;;;5074219;28;45395;-65
2022/08/21 09:52:32;;;;;;;;;6.00;6.00;;;;;;;;5065216;28;45404;-65
2022/08/21 09:54:58;;;;;;;;;10.00;10.00;;;;;;;;5073760;28;45449;-64
2022/08/21 09:57:41;;;;;;;;;4.50;4.50;;;;;;;;5074964;28;45346;-65
2022/08/21 10:00:27;;;;;;;;;5.50;5.25;;;;;;;;5049516;28;45450;-66
2022/08/21 10:02:52;;;;;;;;;4.25;3.75;;;;;;;;5053981;28;47933;-66
2022/08/21 10:05:20;;;;;;;;;4.25;4.00;;;;;;;;5055849;28;45461;-64
2022/08/21 10:07:45;;;;;;;;;5.00;4.00;;;;;;;;5051203;28;45802;-65
2022/08/21 10:10:15;;;;;;;;;2.00;2.00;;;;;;;;5054362;28;45449;-66
2022/08/21 10:12:51;;;;;;;;;2.00;2.00;;;;;;;;5062607;28;48617;-65
2022/08/21 10:15:16;;;;;;;;;3.00;1.75;;;;;;;;5054520;28;45794;-64
2022/08/21 10:18:00;;;;;;;;;4.50;3.00;;;;;;;;5055370;28;45319;-63
2022/08/21 10:20:39;;;;;;;;;3.25;3.25;;;;;;;;5058195;28;45773;-62
2022/08/21 10:23:27;;;;;;;;;2.25;2.25;;;;;;;;5073262;28;46543;-63
2022/08/21 10:25:58;;;;;;;;;4.00;3.00;;;;;;;;5068068;28;45406;-62
2022/08/21 10:28:49;;;;;;;;;6.25;4.75;;;;;;;;5058521;28;45436;-62
2022/08/21 10:31:18;;;;;;;;;4.00;4.00;;;;;;;;5066697;28;45480;-62
2022/08/21 10:33:46;;;;;;;;;2.50;2.25;;;;;;;;5073163;28;46471;-62
2022/08/21 10:36:14;;;;;;;;;3.75;3.00;;;;;;;;5054654;28;45579;-61
2022/08/21 10:38:51;;;;;;;;;5.00;3.75;;;;;;;;5073969;28;45405;-61
2022/08/21 10:41:28;;;;;;;;;6.00;3.00;;;;;;;;5074015;28;45478;-60
2022/08/21 10:44:13;;;;;;;;;4.25;3.00;;;;;;;;5049864;28;47253;-61
2022/08/21 10:46:55;;;;;;;;;3.00;3.00;;;;;;;;5077789;28;45456;-61
2022/08/21 10:49:24;;;;;;;;;3.00;3.00;;;;;;;;5059291;28;45358;-62
2022/08/21 10:51:55;;;;;;;;;5.00;4.00;;;;;;;;5076188;28;45401;-61
2022/08/21 10:54:20;;;;;;;;;4.00;4.00;;;;;;;;5043172;28;48465;-62
2022/08/21 10:56:49;;;;;;;;;4.75;3.00;;;;;;;;5076289;28;45483;-62
2022/08/21 10:59:20;;;;;;;;;2.25;2.25;;;;;;;;5057154;28;45477;-62
2022/08/21 11:01:48;;;;;;;;;4.25;3.00;;;;;;;;5075971;28;45417;-62
2022/08/21 11:04:23;;;;;;;;;3.00;3.00;;;;;;;;5058827;28;47809;-65
2022/08/21 11:06:53;;;;;;;;;5.00;3.25;;;;;;;;5058777;28;46263;-64
2022/08/21 11:09:19;;;;;;;;;3.50;3.50;;;;;;;;5077793;28;45491;-61
2022/08/21 11:12:05;;;;;;;;;4.25;3.25;;;;;;;;5058898;28;45658;-61
2022/08/21 11:14:36;;;;;;;;;4.25;4.25;;;;;;;;5075370;28;48014;-64
2022/08/21 11:17:09;;;;;;;;;7.00;3.00;;;;;;;;5059144;28;45704;-65
2022/08/21 11:19:53;;;;;;;;;4.25;3.00;;;;;;;;5076123;28;45439;-61
2022/08/21 11:22:21;;;;;;;;;3.00;1.50;;;;;;;;5077221;28;45386;-62
2022/08/21 11:24:53;;;;;;;;;3.00;1.25;;;;;;;;5077563;27;46678;-62
2022/08/21 11:27:18;;;;;;;;;1.00;1.00;;;;;;;;5057608;28;45430;-61
2022/08/21 11:29:46;;;;;;;;;5.75;4.75;;;;;;;;5059013;28;45343;-61
2022/08/21 11:32:30;;;;;;;;;3.00;2.00;;;;;;;;5042679;28;45432;-61
2022/08/21 11:35:07;;;;;;;;;2.25;2.00;;;;;;;;5076913;28;46649;-61
2022/08/21 11:37:42;;;;;;;;;2.25;1.25;;;;;;;;5076501;28;45509;-61
2022/08/21 11:40:26;;;;;;;;;4.00;4.00;;;;;;;;5077519;28;45393;-61
2022/08/21 11:43:14;;;;;;;;;4.25;3.00;;;;;;;;5077389;28;45423;-61
2022/08/21 11:45:44;;;;;;;;;2.50;2.25;;;;;;;;5066074;28;46916;-61
2022/08/21 11:48:30;;;;;;;;;2.00;2.00;;;;;;;;5077296;27;45393;-61
2022/08/21 11:50:55;;;;;;;;;2.00;2.00;;;;;;;;5058858;28;45411;-61
2022/08/21 11:53:29;;;;;;;;;3.00;3.00;;;;;;;;5059139;28;45607;-61
2022/08/21 11:55:56;;;;;;;;;2.33;2.33;;;;;;;;5057796;28;48935;-61
2022/08/21 11:58:21;;;;;;;;;2.00;2.00;;;;;;;;5077290;28;45331;-61
2022/08/21 12:00:50;;;;;;;;;2.00;2.00;;;;;;;;5058863;28;45330;-62
2022/08/21 12:03:17;;;;;;;;;1.00;1.00;;;;;;;;5076568;28;45389;-62
2022/08/21 12:05:51;;;;;;;;;5.25;4.25;;;;;;;;5076666;28;45469;-62
2022/08/21 12:08:35;;;;;;;;;2.00;2.00;;;;;;;;5058836;28;46432;-61
2022/08/21 12:11:00;;;;;;;;;3.00;3.00;;;;;;;;5077227;28;45350;-62
2022/08/21 12:13:27;;;;;;;;;3.75;3.00;;;;;;;;5058677;27;45413;-63
2022/08/21 12:16:04;;;;;;;;;2.00;2.00;;;;;;;;5077005;28;46610;-61
2022/08/21 12:18:30;;;;;;;;;2.50;2.50;;;;;;;;5058543;28;45509;-63
2022/08/21 12:21:04;;;;;;;;;1.75;0.00;;;;;;;;5076968;27;45397;-63
2022/08/21 12:23:42;;;;;;;;;3.25;2.50;;;;;;;;5058540;28;45393;-62
2022/08/21 12:26:17;;;;;;;;;3.75;2.25;;;;;;;;5081875;27;45340;-61
2022/08/21 12:28:42;;;;;;;;;2.75;2.00;;;;;;;;5075769;27;46231;-62
2022/08/21 12:31:28;;;;;;;;;2.75;2.50;;;;;;;;5078338;27;45477;-61
2022/08/21 12:33:59;;;;;;;;;1.50;1.00;;;;;;;;5078281;27;45440;-62
2022/08/21 12:36:39;;;;;;;;;2.25;1.00;;;;;;;;5078389;27;47573;-62
2022/08/21 12:39:10;;;;;;;;;2.00;2.00;;;;;;;;5078249;27;45467;-62
2022/08/21 12:41:56;;;;;;;;;7.75;7.75;;;;;;;;5078180;27;45385;-63
2022/08/21 12:44:26;;;;;;;;;1.00;1.00;;;;;;;;5096671;27;45472;-62
2022/08/21 12:46:56;;;;;;;;;0.67;0.67;;;;;;;;5078145;27;48583;-63
2022/08/21 12:49:31;;;;;;;;;0.00;0.00;;;;;;;;5096531;27;45420;-63
2022/08/21 12:52:09;;;;;;;;;3.50;3.50;;;;;;;;5096098;27;45612;-60
2022/08/21 12:54:39;;;;;;;;;1.67;1.67;;;;;;;;5096541;27;45450;-62
2022/08/21 12:57:05;;;;;;;;;2.33;2.00;;;;;;;;5077970;27;47893;-61
2022/08/21 12:59:31;;;;;;;;;3.00;3.00;;;;;;;;5078034;27;46297;-62
2022/08/21 13:01:57;;;;;;;;;2.00;2.00;;;;;;;;5096374;27;45393;-60
2022/08/21 13:04:32;;;;;;;;;2.00;2.00;;;;;;;;5096455;27;45779;-62
2022/08/21 13:06:58;;;;;;;;;4.75;4.75;;;;;;;;5077479;27;47867;-62
2022/08/21 13:09:26;;;;;;;;;1.50;1.50;;;;;;;;5077798;27;45283;-62
2022/08/21 13:11:51;;;;;;;;;2.33;2.33;;;;;;;;5078350;27;45331;-62
2022/08/21 13:14:27;;;;;;;;;2.33;2.33;;;;;;;;5077893;27;45350;-61
2022/08/21 13:16:59;;;;;;;;;0.33;0.33;;;;;;;;5077859;27;47121;-61
2022/08/21 13:19:25;;;;;;;;;3.00;3.00;;;;;;;;5096248;27;45352;-63
2022/08/21 13:21:52;;;;;;;;;1.25;1.25;;;;;;;;5077806;27;45432;-62
2022/08/21 13:24:20;;;;;;;;;0.33;0.00;;;;;;;;5096331;27;45393;-61
2022/08/21 13:26:46;;;;;;;;;0.00;0.00;;;;;;;;5096039;27;45836;-62
2022/08/21 13:29:14;;;;;;;;;2.00;2.00;;;;;;;;5096045;27;45456;-62
2022/08/21 13:31:42;;;;;;;;;1.00;0.00;;;;;;;;5078081;27;45376;-61
2022/08/21 13:34:10;;;;;;;;;0.00;0.00;;;;;;;;5096268;27;45401;-61
2022/08/21 13:36:40;;;;;;;;;0.00;0.00;;;;;;;;5077664;27;47475;-62
2022/08/21 13:39:07;;;;;;;;;0.00;0.00;;;;;;;;5077546;27;45337;-62
2022/08/21 13:41:35;;;;;;;;;0.00;0.00;;;;;;;;5095948;27;45336;-62
2022/08/21 13:44:05;;;;;;;;;0.00;0.00;;;;;;;;5077532;27;45804;-61
2022/08/21 13:46:35;;;;;;;;;0.00;0.00;;;;;;;;5077618;27;47769;-61
2022/08/21 13:49:02;;;;;;;;;2.75;1.75;;;;;;;;5095805;27;45401;-61
2022/08/21 13:51:28;;;;;;;;;0.00;0.00;;;;;;;;5095857;27;45337;-62
2022/08/21 13:53:54;;;;;;;;;0.00;0.00;;;;;;;;5095988;27;45294;-62
2022/08/21 13:56:25;;;;;;;;;0.67;0.67;;;;;;;;5095636;27;45762;-62
2022/08/21 13:58:50;;;;;;;;;0.00;0.00;;;;;;;;5077466;27;45744;-62
2022/08/21 14:01:19;;;;;;;;;1.50;1.50;;;;;;;;5077281;27;45357;-62
2022/08/21 14:03:47;;;;;;;;;0.00;0.00;;;;;;;;5095811;27;45850;-62
2022/08/21 14:06:17;;;;;;;;;1.00;0.00;;;;;;;;5095669;27;46410;-61
2022/08/21 14:08:48;;;;;;;;;0.00;0.00;;;;;;;;5077311;27;45463;-62
2022/08/21 14:11:13;;;;;;;;;3.25;2.00;;;;;;;;5095927;27;45431;-61
2022/08/21 14:13:38;;;;;;;;;1.00;1.00;;;;;;;;5095685;27;45365;-62
2022/08/21 14:16:10;;;;;;;;;0.00;0.00;;;;;;;;5076990;27;48498;-62
2022/08/21 14:18:43;;;;;;;;;0.00;0.00;;;;;;;;5095658;27;46332;-63
2022/08/21 14:21:09;;;;;;;;;0.50;0.50;;;;;;;;5099417;27;45461;-63
2022/08/21 14:23:34;;;;;;;;;0.00;0.00;;;;;;;;5080877;27;45569;-62
2022/08/21 14:26:01;;;;;;;;;0.67;0.00;;;;;;;;5080822;27;48384;-62
2022/08/21 14:28:34;;;;;;;;;0.00;0.00;;;;;;;;5080587;27;45427;-62
2022/08/21 14:31:12;;;;;;;;;0.00;0.00;;;;;;;;5098138;27;45536;-62
2022/08/21 14:33:37;;;;;;;;;1.00;1.00;;;;;;;;5099345;27;45612;-61
2022/08/21 14:36:02;;;;;;;;;0.00;0.00;;;;;;;;5098998;27;46110;-63
2022/08/21 14:38:28;;;;;;;;;0.50;0.50;;;;;;;;5080725;27;45316;-62
2022/08/21 14:40:54;;;;;;;;;0.00;0.00;;;;;;;;5099282;27;45428;-62
2022/08/21 14:43:20;;;;;;;;;0.00;0.00;;;;;;;;5080626;27;45437;-62
2022/08/21 14:45:46;;;;;;;;;0.00;0.00;;;;;;;;5080613;27;47614;-61
2022/08/21 14:48:11;;;;;;;;;2.00;0.00;;;;;;;;5080546;27;45452;-63